Time;durP1;ratioP1;P1;durP2;ratioP2;P2;SDS_P1;SDS_P2;PMS_P1;PMS_P2;Temp;Humidity;BMP_temperature;BMP_pressure;BME280_temperature;BME280_humidity;BME280_pressure;Samples;Min_cycle;Max_cycle;Signal;HPM_P1;HPM_P2
2022/01/19 00:00:41;;;;;;;50.10;11.88;;;;;;;4.76;87.85;101211.53;5064781;28;20024;-73
2022/01/19 00:03:06;;;;;;;39.30;7.68;;;;;;;4.74;87.90;101212.34;5065119;28;20033;-73
2022/01/19 00:05:31;;;;;;;50.00;7.72;;;;;;;4.74;87.89;101202.06;5046819;28;20405;-74
2022/01/19 00:07:57;;;;;;;32.90;6.78;;;;;;;4.71;88.04;101200.28;5046659;28;20017;-74
2022/01/19 00:10:27;;;;;;;34.60;6.13;;;;;;;4.59;88.12;101170.81;5064505;28;20048;-73
2022/01/19 00:12:58;;;;;;;40.05;6.75;;;;;;;4.69;88.04;101195.09;5064687;28;20032;-74
2022/01/19 00:15:25;;;;;;;28.95;6.72;;;;;;;4.67;87.95;101194.16;5064539;28;20032;-74
2022/01/19 00:17:56;;;;;;;25.65;5.07;;;;;;;4.58;88.14;101163.03;5046448;28;20039;-73
2022/01/19 00:20:22;;;;;;;25.45;5.57;;;;;;;4.63;87.98;101174.34;5064424;28;20021;-73
2022/01/19 00:22:49;;;;;;;40.30;7.93;;;;;;;4.59;88.26;101169.91;5064765;28;20025;-74
2022/01/19 00:25:15;;;;;;;29.60;6.32;;;;;;;4.47;88.37;101148.16;5046640;28;20560;-74
2022/01/19 00:27:40;;;;;;;30.85;5.82;;;;;;;4.42;88.52;101133.44;5064359;28;20054;-72
2022/01/19 00:30:07;;;;;;;29.25;6.15;;;;;;;4.53;88.60;101150.06;5064337;28;20044;-74
2022/01/19 00:32:33;;;;;;;15.65;4.45;;;;;;;4.48;88.71;101149.03;5064283;28;20017;-73
2022/01/19 00:34:58;;;;;;;28.55;5.63;;;;;;;4.44;88.58;101130.06;5063884;28;20102;-73
2022/01/19 00:37:24;;;;;;;30.67;5.70;;;;;;;4.45;88.68;101143.81;5046171;28;20021;-74
2022/01/19 00:39:50;;;;;;;22.83;5.25;;;;;;;4.34;88.71;101110.94;5064072;28;20033;-74
2022/01/19 00:42:16;;;;;;;28.85;6.43;;;;;;;4.39;88.92;101126.53;5064189;28;20029;-74
2022/01/19 00:44:41;;;;;;;25.63;6.10;;;;;;;4.40;88.80;101123.13;5064187;28;20036;-73
2022/01/19 00:47:07;;;;;;;29.58;7.43;;;;;;;4.38;88.91;101119.63;5063908;28;20021;-73
2022/01/19 00:49:32;;;;;;;29.67;8.02;;;;;;;4.23;88.72;101086.66;5063836;28;20024;-74
2022/01/19 00:51:57;;;;;;;16.25;5.47;;;;;;;4.33;88.74;101098.03;5063920;28;20032;-75
2022/01/19 00:54:23;;;;;;;28.05;6.57;;;;;;;4.25;88.81;101084.13;5045761;28;20120;-74
2022/01/19 00:56:48;;;;;;;32.33;8.65;;;;;;;4.20;88.61;101073.72;5046117;28;20056;-73
2022/01/19 00:59:13;;;;;;;19.02;4.68;;;;;;;4.32;88.77;101097.19;5063961;28;20025;-74
2022/01/19 01:01:39;;;;;;;23.20;5.40;;;;;;;4.22;88.65;101070.34;5063622;28;20483;-73
2022/01/19 01:04:04;;;;;;;35.88;7.43;;;;;;;4.29;88.86;101075.66;5063632;28;20021;-74
2022/01/19 01:06:30;;;;;;;23.83;4.60;;;;;;;4.09;88.89;101040.84;5063014;28;20484;-74
2022/01/19 01:08:56;;;;;;;32.75;7.10;;;;;;;4.14;88.81;101055.53;5063737;28;20033;-74
2022/01/19 01:11:28;;;;;;;38.17;8.23;;;;;;;4.13;88.98;101044.38;5063615;28;20086;-74
2022/01/19 01:18:57;;;;;;;22.35;6.43;;;;;;;4.18;89.03;101055.66;5063593;28;20021;-71
2022/01/19 01:21:22;;;;;;;28.65;7.10;;;;;;;4.17;88.98;101045.34;5063511;28;20101;-73
2022/01/19 01:23:48;;;;;;;41.03;9.00;;;;;;;4.14;88.97;101046.13;5063097;28;20052;-74
2022/01/19 01:26:13;;;;;;;12.68;3.40;;;;;;;4.16;88.82;101043.59;5063322;28;20385;-74
2022/01/19 01:28:38;;;;;;;34.65;7.15;;;;;;;4.12;88.97;101045.19;5063194;28;20104;-73
2022/01/19 01:31:07;;;;;;;35.58;8.40;;;;;;;4.14;89.04;101030.69;5063127;28;20027;-73
2022/01/19 01:33:33;;;;;;;29.75;8.32;;;;;;;4.16;88.99;101034.19;5063029;28;20055;-74
2022/01/19 01:35:59;;;;;;;34.55;7.22;;;;;;;4.16;89.13;101030.72;5063187;28;20041;-74
2022/01/19 01:38:25;;;;;;;29.13;5.75;;;;;;;4.15;89.10;101017.03;5063200;28;20401;-74
2022/01/19 01:40:50;;;;;;;22.10;5.88;;;;;;;4.16;89.18;101030.72;5063260;28;20365;-74
2022/01/19 01:43:16;;;;;;;34.30;8.00;;;;;;;4.13;89.18;101020.38;5063241;28;20029;-74
2022/01/19 01:45:45;;;;;;;40.28;7.15;;;;;;;4.17;88.94;101010.22;5045149;28;20076;-73
2022/01/19 01:48:16;;;;;;;27.90;7.70;;;;;;;4.20;89.06;101010.31;5063146;28;20024;-74
2022/01/19 01:53:30;;;;;;;31.40;8.15;;;;;;;4.22;88.76;101003.50;5063262;28;20444;-75
2022/01/19 01:56:04;;;;;;;31.38;7.43;;;;;;;4.20;88.67;101005.16;5063053;28;20080;-74
2022/01/19 01:58:36;;;;;;;26.63;6.47;;;;;;;4.20;88.78;100988.88;5062924;28;20407;-74
2022/01/19 02:01:04;;;;;;;32.65;8.00;;;;;;;4.20;88.72;100987.16;5062592;28;20029;-74
2022/01/19 02:03:36;;;;;;;18.58;5.43;;;;;;;4.16;88.54;100961.34;5062952;28;20084;-74
2022/01/19 02:08:37;;;;;;;29.25;6.82;;;;;;;4.21;88.64;100964.91;5062998;28;20059;-75
2022/01/19 02:21:38;;;;;;;23.75;7.65;;;;;;;4.16;88.69;100941.66;5063023;28;20083;-74
2022/01/19 02:22:04;;;;;;;31.80;9.50;;;;;;;4.16;88.58;100922.78;5066760;28;20429;-73
2022/01/19 02:24:39;;;;;;;28.00;8.18;;;;;;;4.17;88.78;100915.13;5066775;28;20070;-73
2022/01/19 02:28:58;;;;;;;40.28;8.60;;;;;;;4.04;88.61;100887.38;5065461;28;20024;-74
2022/01/19 02:30:45;;;;;;;24.33;8.20;;;;;;;4.02;88.50;100896.75;5066210;28;20032;-74
2022/01/19 02:41:11;;;;;;;34.30;9.07;;;;;;;4.04;88.97;100925.94;5066655;28;20063;-76
2022/01/19 02:43:37;;;;;;;33.92;8.23;;;;;;;3.86;89.11;100905.72;5066473;28;20080;-75
2022/01/19 02:51:30;;;;;;;23.08;5.43;;;;;;;4.00;88.83;100877.84;5066316;28;20032;-75
2022/01/19 02:53:55;;;;;;;25.52;6.03;;;;;;;4.03;88.85;100894.22;5066282;28;20029;-76
2022/01/19 02:56:26;;;;;;;37.40;6.47;;;;;;;4.03;88.89;100870.22;5066271;28;20017;-74
2022/01/19 02:58:58;;;;;;;30.95;8.25;;;;;;;4.06;88.77;100881.44;5066242;28;20020;-74
2022/01/19 03:09:26;;;;;;;32.85;7.80;;;;;;;4.04;88.30;100828.28;5066125;28;20025;-74
2022/01/19 03:11:51;;;;;;;16.05;4.68;;;;;;;4.09;88.32;100811.25;5065943;28;20023;-73
2022/01/19 03:14:17;;;;;;;23.17;4.90;;;;;;;4.08;88.39;100804.41;5047937;28;20029;-74
2022/01/19 03:16:44;;;;;;;25.83;7.47;;;;;;;4.02;88.48;100806.81;5047742;28;20017;-74
2022/01/19 03:19:11;;;;;;;15.55;4.78;;;;;;;4.05;88.44;100804.31;5065656;28;20048;-74
2022/01/19 03:21:37;;;;;;;19.90;5.15;;;;;;;4.06;88.58;100811.19;5065820;28;20020;-74
2022/01/19 03:24:03;;;;;;;16.95;5.45;;;;;;;3.97;88.62;100799.00;5065977;28;20039;-76
2022/01/19 03:26:28;;;;;;;21.13;5.97;;;;;;;4.07;88.53;100807.81;5065567;28;20031;-75
2022/01/19 03:28:54;;;;;;;33.95;7.20;;;;;;;4.10;88.49;100802.75;5065466;28;20045;-74
2022/01/19 03:31:19;;;;;;;29.13;7.25;;;;;;;4.09;88.49;100813.84;5064574;28;20029;-75
2022/01/19 03:33:45;;;;;;;30.10;7.30;;;;;;;4.07;88.54;100782.97;5065224;28;20028;-75
2022/01/19 03:36:11;;;;;;;26.08;5.35;;;;;;;4.01;88.54;100763.97;5065732;28;20048;-75
2022/01/19 03:38:36;;;;;;;27.35;6.22;;;;;;;4.10;88.45;100764.19;5047459;28;20028;-75
2022/01/19 03:41:02;;;;;;;17.40;4.50;;;;;;;4.07;88.53;100759.84;5047112;28;20021;-75
2022/01/19 03:43:27;;;;;;;21.10;4.15;;;;;;;4.07;88.49;100769.25;5065238;28;20041;-75
2022/01/19 03:45:54;;;;;;;38.55;8.18;;;;;;;4.06;88.68;100768.38;5047109;28;20246;-74
2022/01/19 03:50:49;;;;;;;30.80;6.80;;;;;;;4.08;88.76;100746.16;5064707;28;20103;-74
2022/01/19 03:53:15;;;;;;;30.83;6.25;;;;;;;4.00;88.53;100728.81;5064932;28;20413;-73
2022/01/19 03:55:40;;;;;;;26.02;5.50;;;;;;;4.05;88.76;100752.94;5064745;28;20055;-74
2022/01/19 03:58:05;;;;;;;19.58;4.55;;;;;;;4.03;88.71;100716.94;5063419;28;20039;-75
2022/01/19 04:00:34;;;;;;;20.05;6.32;;;;;;;4.07;88.84;100731.56;5064625;28;20029;-74
2022/01/19 04:03:01;;;;;;;35.75;8.13;;;;;;;4.06;88.94;100734.97;5046645;28;20028;-73
2022/01/19 04:05:40;;;;;;;17.83;4.40;;;;;;;3.96;88.88;100702.22;5064536;28;20033;-73
2022/01/19 04:08:06;;;;;;;48.25;10.25;;;;;;;4.08;88.89;100722.16;5064644;28;20067;-74
2022/01/19 04:10:32;;;;;;;19.55;5.90;;;;;;;3.94;88.92;100679.06;5064551;28;20021;-75
2022/01/19 04:13:09;;;;;;;25.67;5.65;;;;;;;3.99;89.03;100673.13;5064512;28;20574;-74
2022/01/19 04:15:36;;;;;;;41.45;7.20;;;;;;;4.15;88.77;100687.22;5046581;28;20036;-74
2022/01/19 04:18:03;;;;;;;33.30;8.70;;;;;;;4.09;88.72;100675.94;5046382;28;20028;-74
2022/01/19 04:20:29;;;;;;;40.38;9.88;;;;;;;4.03;88.88;100656.94;5064210;28;20051;-74
2022/01/19 04:22:55;;;;;;;39.28;10.30;;;;;;;4.12;88.88;100667.44;5064170;28;20493;-74
2022/01/19 04:25:20;;;;;;;19.42;6.32;;;;;;;4.02;88.88;100632.09;5064290;28;20032;-74
2022/01/19 04:27:46;;;;;;;30.67;7.70;;;;;;;4.13;88.80;100651.19;5064161;28;20033;-74
2022/01/19 04:30:13;;;;;;;30.08;8.02;;;;;;;4.14;88.87;100634.94;5064193;28;20036;-75
2022/01/19 04:35:25;;;;;;;32.05;8.48;;;;;;;4.14;88.91;100619.53;5063836;28;20045;-73
2022/01/19 04:38:42;;;;;;;33.90;8.15;;;;;;;4.17;88.79;100609.31;5045942;28;20029;-73
2022/01/19 05:07:22;;;;;;;45.88;10.38;;;;;;;3.93;89.87;100541.16;5021307;28;20026;-74
2022/01/19 05:15:01;;;;;;;10.88;5.95;;;;;;;4.03;90.11;100556.75;5021653;28;20560;-74
2022/01/19 05:17:27;;;;;;;15.07;7.43;;;;;;;4.07;90.09;100554.28;5021406;28;20029;-75
2022/01/19 05:19:52;;;;;;;19.30;7.20;;;;;;;4.02;90.05;100529.34;5004740;28;20026;-76
2022/01/19 05:22:17;;;;;;;42.80;11.85;;;;;;;3.99;90.12;100519.00;5021242;28;20040;-75
2022/01/19 05:24:43;;;;;;;51.00;13.57;;;;;;;4.10;90.30;100545.78;5021144;28;20582;-74
2022/01/19 05:27:09;;;;;;;40.70;12.52;;;;;;;4.10;90.21;100538.06;5021087;28;20022;-74
2022/01/19 05:29:34;;;;;;;43.38;13.77;;;;;;;4.02;90.20;100506.22;5021267;28;20038;-74
2022/01/19 05:31:59;;;;;;;26.55;9.88;;;;;;;4.13;89.95;100519.28;5055729;28;20033;-74
2022/01/19 05:34:25;;;;;;;29.80;9.55;;;;;;;4.04;90.10;100509.69;5063151;28;20044;-74
2022/01/19 05:36:50;;;;;;;32.45;9.68;;;;;;;4.04;90.07;100502.81;5045781;28;20084;-73
2022/01/19 05:39:16;;;;;;;32.05;7.75;;;;;;;4.12;90.38;100517.56;5045656;28;20047;-73
2022/01/19 05:41:41;;;;;;;44.85;13.82;;;;;;;4.13;90.48;100512.44;5063483;28;20059;-76
2022/01/19 05:44:06;;;;;;;32.72;11.88;;;;;;;4.16;90.51;100517.63;5063454;28;20441;-72
2022/01/19 05:46:33;;;;;;;32.75;9.73;;;;;;;4.17;90.47;100506.50;5045536;28;20021;-74
2022/01/19 05:48:58;;;;;;;30.83;10.18;;;;;;;4.11;90.46;100496.13;5063425;28;20021;-74
2022/01/19 05:51:23;;;;;;;40.65;13.07;;;;;;;4.20;90.46;100491.16;5063760;28;20463;-73
2022/01/19 05:53:49;;;;;;;48.58;14.15;;;;;;;4.15;90.39;100482.50;5067887;28;20017;-74
2022/01/19 05:56:14;;;;;;;45.72;12.98;;;;;;;4.24;90.56;100492.09;5051813;28;20047;-73
2022/01/19 05:58:40;;;;;;;50.45;13.00;;;;;;;4.31;90.37;100498.22;5069899;28;20427;-71
2022/01/19 06:01:05;;;;;;;41.25;12.38;;;;;;;4.32;90.31;100487.97;5070203;28;20527;-66
2022/01/19 06:03:30;;;;;;;43.10;13.75;;;;;;;4.24;90.49;100466.38;5070226;28;20046;-71
2022/01/19 06:05:56;;;;;;;29.35;8.23;;;;;;;4.24;90.29;100455.22;5069679;28;20026;-70
2022/01/19 06:10:54;;;;;;;30.17;8.68;;;;;;;4.26;90.27;100449.31;5070251;28;20021;-73
2022/01/19 06:13:21;;;;;;;36.90;10.77;;;;;;;4.36;90.32;100464.88;5070007;28;20047;-73
2022/01/19 06:15:47;;;;;;;24.88;12.05;;;;;;;4.34;90.50;100459.72;5051559;28;20028;-74
2022/01/19 06:18:14;;;;;;;34.92;12.43;;;;;;;4.36;90.32;100458.03;5069617;28;20028;-75
2022/01/19 06:20:40;;;;;;;40.97;12.43;;;;;;;4.37;90.36;100441.78;5050971;28;20033;-76
2022/01/19 06:23:06;;;;;;;40.80;11.77;;;;;;;4.37;90.66;100444.34;5069324;28;20042;-74
2022/01/19 06:25:31;;;;;;;51.33;17.42;;;;;;;4.26;90.27;100412.44;5069162;28;20032;-73
2022/01/19 06:27:57;;;;;;;43.47;14.43;;;;;;;4.44;90.22;100433.31;5069538;28;20059;-73
2022/01/19 06:30:22;;;;;;;44.47;13.38;;;;;;;4.46;90.10;100415.34;5069642;28;20496;-72
2022/01/19 06:32:48;;;;;;;43.20;10.57;;;;;;;4.47;90.10;100410.22;5069410;28;20156;-73
2022/01/19 06:35:14;;;;;;;48.47;14.63;;;;;;;4.52;90.01;100401.75;5069195;28;20045;-73
2022/01/19 06:37:39;;;;;;;31.70;10.93;;;;;;;4.41;89.88;100381.00;5069390;28;20386;-71
2022/01/19 06:40:08;;;;;;;28.35;10.05;;;;;;;4.52;90.06;100376.88;5069181;28;20081;-72
2022/01/19 06:42:33;;;;;;;42.83;13.48;;;;;;;4.44;89.74;100376.75;5069395;28;20536;-73
2022/01/19 06:44:59;;;;;;;55.70;13.20;;;;;;;4.55;90.05;100376.94;5051151;28;20028;-73
2022/01/19 06:47:24;;;;;;;39.05;12.77;;;;;;;4.59;89.71;100359.84;5069024;28;20036;-72
2022/01/19 06:49:50;;;;;;;40.20;12.13;;;;;;;4.59;89.62;100350.44;5068740;28;20032;-73
2022/01/19 06:52:15;;;;;;;33.35;12.32;;;;;;;4.50;89.46;100341.72;5069056;28;20047;-73
2022/01/19 06:54:40;;;;;;;24.88;8.75;;;;;;;4.57;89.67;100354.69;5051163;28;20476;-74
2022/01/19 06:57:06;;;;;;;32.47;10.13;;;;;;;4.55;89.65;100334.94;5051162;28;20036;-73
2022/01/19 06:59:32;;;;;;;43.45;12.13;;;;;;;4.69;89.58;100353.16;5069288;28;20029;-73
2022/01/19 07:01:57;;;;;;;39.65;10.73;;;;;;;4.70;89.42;100327.44;5069250;28;20029;-77
2022/01/19 07:04:22;;;;;;;36.08;11.75;;;;;;;4.70;89.46;100349.72;5067476;28;20021;-73
2022/01/19 07:06:48;;;;;;;51.78;12.80;;;;;;;4.75;89.24;100334.34;5066020;28;20107;-73
2022/01/19 07:09:13;;;;;;;37.75;11.13;;;;;;;4.64;89.26;100306.78;5065598;28;20048;-74
2022/01/19 07:11:39;;;;;;;28.05;8.98;;;;;;;4.74;89.00;100309.50;5047396;28;20074;-74
2022/01/19 07:14:05;;;;;;;32.67;8.18;;;;;;;4.86;89.04;100317.38;5065364;28;20021;-74
2022/01/19 07:16:31;;;;;;;23.85;7.10;;;;;;;4.87;89.01;100318.25;5065008;28;20033;-74
2022/01/19 07:18:56;;;;;;;20.02;6.90;;;;;;;4.84;88.63;100303.63;5064702;28;20028;-74
2022/01/19 07:21:21;;;;;;;38.70;8.55;;;;;;;4.80;88.60;100286.44;5065007;28;20108;-74
2022/01/19 07:23:47;;;;;;;41.83;9.50;;;;;;;4.95;88.27;100326.94;5065173;28;20040;-75
2022/01/19 07:26:12;;;;;;;35.47;10.13;;;;;;;4.87;88.15;100303.69;5065433;28;20033;-75
2022/01/19 07:28:38;;;;;;;25.25;7.70;;;;;;;4.89;88.23;100306.28;5064930;28;20525;-74
2022/01/19 07:31:03;;;;;;;17.80;4.82;;;;;;;5.01;87.98;100311.59;5064987;28;20016;-74
2022/01/19 07:33:29;;;;;;;42.10;7.60;;;;;;;4.92;87.83;100298.59;5047358;28;20019;-73
2022/01/19 07:35:54;;;;;;;37.63;9.23;;;;;;;4.96;87.50;100298.66;5065222;28;20047;-74
2022/01/19 07:38:23;;;;;;;17.50;7.00;;;;;;;5.07;87.53;100297.91;5047304;28;20385;-73
2022/01/19 07:40:48;;;;;;;19.17;7.18;;;;;;;5.07;87.48;100297.91;5063605;28;20079;-74
2022/01/19 07:43:13;;;;;;;21.98;7.72;;;;;;;5.07;87.34;100296.22;5047320;28;20021;-73
2022/01/19 07:45:39;;;;;;;38.55;9.60;;;;;;;4.98;87.23;100261.78;5065067;28;20033;-72
2022/01/19 07:48:04;;;;;;;44.72;10.93;;;;;;;4.95;87.28;100250.59;5065186;28;20025;-74
2022/01/19 07:50:30;;;;;;;33.17;8.85;;;;;;;5.09;87.21;100283.38;5065023;28;20020;-73
2022/01/19 07:52:57;;;;;;;29.63;8.73;;;;;;;5.12;87.04;100269.66;5047181;28;20025;-74
2022/01/19 07:55:22;;;;;;;29.88;7.93;;;;;;;5.13;87.01;100254.25;5065242;28;20028;-74
2022/01/19 07:57:51;;;;;;;40.75;11.15;;;;;;;5.02;86.52;100242.94;5065030;28;20077;-73
2022/01/19 08:00:17;;;;;;;25.02;7.75;;;;;;;5.17;86.70;100250.88;5065028;28;20025;-73
2022/01/19 08:02:44;;;;;;;42.92;9.85;;;;;;;5.20;86.55;100252.59;5064858;28;20112;-73
2022/01/19 08:05:09;;;;;;;31.23;7.90;;;;;;;5.21;86.22;100244.03;5064949;28;20017;-73
2022/01/19 08:07:35;;;;;;;15.52;6.28;;;;;;;5.19;86.04;100241.44;5065134;28;20029;-72
2022/01/19 08:10:06;;;;;;;35.60;8.70;;;;;;;5.14;85.84;100240.56;5064212;28;20041;-76
2022/01/19 08:12:32;;;;;;;21.05;4.65;;;;;;;5.23;85.90;100238.91;5046507;28;20068;-75
2022/01/19 08:15:00;;;;;;;27.38;8.88;;;;;;;5.23;85.95;100221.75;5064498;28;20067;-76
2022/01/19 08:17:26;;;;;;;27.55;6.72;;;;;;;5.14;85.63;100203.66;5046368;28;20077;-76
2022/01/19 08:19:53;;;;;;;22.05;6.20;;;;;;;5.23;85.54;100218.31;5064467;28;20036;-76
2022/01/19 08:22:18;;;;;;;26.70;7.50;;;;;;;5.22;85.42;100214.91;5064628;28;20029;-76
2022/01/19 08:24:44;;;;;;;36.80;8.27;;;;;;;5.25;85.32;100211.47;5064610;28;20032;-74
2022/01/19 08:27:09;;;;;;;13.35;4.57;;;;;;;5.27;85.45;100207.22;5064476;28;20025;-75
2022/01/19 08:29:35;;;;;;;35.78;8.55;;;;;;;5.30;85.26;100209.81;5046670;28;20025;-75
2022/01/19 08:32:00;;;;;;;32.53;8.18;;;;;;;5.28;85.03;100203.78;5064334;28;20043;-74
2022/01/19 08:34:25;;;;;;;21.27;6.68;;;;;;;5.19;84.98;100197.69;5046205;28;20044;-75
2022/01/19 08:36:51;;;;;;;46.45;8.13;;;;;;;5.25;85.10;100196.03;5064503;28;20067;-74
2022/01/19 08:39:17;;;;;;;22.95;5.30;;;;;;;5.24;84.97;100181.44;5064416;28;20017;-75
2022/01/19 08:41:43;;;;;;;37.88;6.07;;;;;;;5.24;84.93;100173.72;5064254;28;20033;-74
2022/01/19 08:44:08;;;;;;;45.78;8.30;;;;;;;5.26;84.85;100172.00;5064398;28;20415;-74
2022/01/19 08:46:37;;;;;;;17.08;5.82;;;;;;;5.23;84.89;100152.25;5064158;28;20017;-74
2022/01/19 08:49:02;;;;;;;27.38;7.63;;;;;;;5.28;85.00;100162.59;5064009;28;20055;-74
2022/01/19 08:51:28;;;;;;;30.52;7.18;;;;;;;5.24;84.76;100142.84;5063983;28;20338;-75
2022/01/19 08:53:53;;;;;;;31.55;7.28;;;;;;;5.26;84.69;100144.56;5064250;28;20032;-75
2022/01/19 08:56:18;;;;;;;38.00;7.95;;;;;;;5.23;84.33;100128.22;5064039;28;20051;-74
2022/01/19 08:58:44;;;;;;;21.88;6.55;;;;;;;5.27;84.39;100133.41;5064108;28;20021;-75
2022/01/19 09:01:09;;;;;;;36.08;8.30;;;;;;;5.07;84.46;100110.94;5063629;28;20021;-73
2022/01/19 09:03:34;;;;;;;27.65;7.00;;;;;;;5.01;84.45;100115.16;5045914;28;20029;-75
2022/01/19 09:06:00;;;;;;;28.15;6.70;;;;;;;5.07;84.91;100131.53;5045726;28;20024;-75
2022/01/19 09:08:25;;;;;;;26.38;6.93;;;;;;;5.09;84.84;100123.81;5045792;28;20031;-75
2022/01/19 09:10:57;;;;;;;34.90;6.47;;;;;;;4.99;84.80;100106.56;5063843;28;20031;-74
2022/01/19 09:13:23;;;;;;;18.95;4.97;;;;;;;4.85;85.08;100094.44;5045924;28;20021;-74
2022/01/19 09:15:48;;;;;;;33.30;7.50;;;;;;;4.94;85.22;100096.22;5045616;28;20017;-74
2022/01/19 09:18:13;;;;;;;19.35;6.05;;;;;;;4.95;85.44;100085.94;5063576;28;20491;-75
2022/01/19 09:20:39;;;;;;;25.23;5.57;;;;;;;5.06;85.39;100104.06;5063544;28;20081;-71
2022/01/19 09:23:04;;;;;;;30.00;7.10;;;;;;;5.07;85.18;100105.81;5063434;28;20089;-71
2022/01/19 09:25:30;;;;;;;31.15;6.25;;;;;;;5.05;85.61;100102.34;5063282;28;20021;-71
2022/01/19 09:27:55;;;;;;;23.02;4.95;;;;;;;5.03;85.42;100093.72;5062560;28;20021;-71
2022/01/19 09:30:23;;;;;;;32.03;6.28;;;;;;;5.08;85.63;100098.91;5063367;28;20028;-70
2022/01/19 09:32:56;;;;;;;30.15;6.20;;;;;;;5.11;85.39;100092.97;5045160;28;20111;-71
2022/01/19 09:35:25;;;;;;;22.33;5.40;;;;;;;5.09;85.62;100090.38;5063040;28;20174;-71
2022/01/19 09:37:51;;;;;;;48.78;7.68;;;;;;;5.11;85.61;100090.38;5045450;28;20044;-72
2022/01/19 09:40:16;;;;;;;28.40;7.43;;;;;;;5.11;85.61;100075.81;5063444;28;20572;-71
2022/01/19 09:42:46;;;;;;;20.80;6.47;;;;;;;5.13;85.58;100068.13;5063261;28;20028;-72
2022/01/19 09:45:11;;;;;;;24.45;5.57;;;;;;;5.14;85.64;100069.81;5063530;28;20049;-72
2022/01/19 09:47:37;;;;;;;24.98;6.15;;;;;;;5.13;85.54;100078.41;5063092;28;20071;-71
2022/01/19 09:50:03;;;;;;;37.42;6.75;;;;;;;5.13;85.85;100075.84;5062999;28;20028;-71
2022/01/19 09:52:29;;;;;;;38.33;6.80;;;;;;;5.06;85.91;100060.31;5062915;28;20093;-71
2022/01/19 09:54:55;;;;;;;36.80;6.53;;;;;;;4.99;85.89;100029.38;5063032;28;20076;-73
2022/01/19 09:57:20;;;;;;;21.40;5.15;;;;;;;5.02;85.83;100044.84;5045009;28;20024;-72
2022/01/19 09:59:46;;;;;;;32.53;6.57;;;;;;;5.11;86.15;100049.22;5063059;28;20025;-72
2022/01/19 10:02:12;;;;;;;13.70;4.88;;;;;;;5.11;86.14;100054.34;5062878;28;20021;-71
2022/01/19 10:04:44;;;;;;;26.38;6.60;;;;;;;5.08;86.06;100050.03;5063193;28;20079;-72
2022/01/19 10:07:19;;;;;;;36.33;7.55;;;;;;;5.08;86.15;100045.75;5044687;28;20020;-71
2022/01/19 10:09:59;;;;;;;25.75;6.93;;;;;;;5.06;86.40;100038.88;5044905;28;20040;-71
2022/01/19 10:18:20;;;;;;;39.78;8.85;;;;;;;4.98;86.83;100001.94;5062969;28;20031;-73
2022/01/19 10:21:05;;;;;;;37.95;7.47;;;;;;;4.91;86.86;99986.44;5044611;28;20064;-71
2022/01/19 10:23:35;;;;;;;26.92;5.97;;;;;;;4.94;87.08;99980.44;5062741;28;20055;-72
2022/01/19 10:26:01;;;;;;;32.17;6.63;;;;;;;4.91;87.37;99983.88;5062507;28;20025;-72
2022/01/19 10:28:28;;;;;;;44.92;8.88;;;;;;;4.91;87.35;99977.84;5062475;28;20032;-72
2022/01/19 10:30:53;;;;;;;47.92;7.90;;;;;;;4.86;87.63;99956.41;5062168;28;20029;-72
2022/01/19 10:33:19;;;;;;;25.38;7.95;;;;;;;4.90;87.57;99958.13;5062431;28;20025;-71
2022/01/19 10:35:49;;;;;;;25.90;6.00;;;;;;;4.88;87.63;99942.69;5040933;28;20057;-70
2022/01/19 10:38:19;;;;;;;12.30;3.38;;;;;;;4.83;87.96;99934.94;5042640;28;20013;-73
2022/01/19 10:41:02;;;;;;;47.80;8.38;;;;;;;4.81;88.27;99931.50;5044529;28;20466;-71
2022/01/19 10:43:33;;;;;;;31.73;6.38;;;;;;;4.75;88.51;99933.16;5046353;28;20029;-71
2022/01/19 10:46:34;;;;;;;42.72;8.70;;;;;;;4.75;88.92;99920.28;5046216;28;20029;-71
2022/01/19 10:49:05;;;;;;;35.20;7.05;;;;;;;4.74;88.73;99905.72;5045811;28;20040;-71
2022/01/19 10:51:33;;;;;;;29.13;6.60;;;;;;;4.62;89.01;99886.78;5045564;28;20082;-71
2022/01/19 10:54:21;;;;;;;39.05;6.55;;;;;;;4.66;89.29;99895.38;5046261;28;20222;-71
2022/01/19 10:56:54;;;;;;;31.92;8.45;;;;;;;4.73;89.25;99883.44;5046389;28;20399;-71
2022/01/19 10:59:24;;;;;;;49.88;7.93;;;;;;;4.78;89.36;99884.31;5046110;28;20026;-72
2022/01/19 11:01:56;;;;;;;39.85;6.53;;;;;;;4.79;89.47;99886.03;5045909;28;20040;-72
2022/01/19 11:04:30;;;;;;;34.63;8.07;;;;;;;4.78;89.64;99871.44;5045778;28;20101;-72
2022/01/19 11:07:08;;;;;;;31.88;8.35;;;;;;;4.69;89.51;99846.53;5045770;28;20068;-72
2022/01/19 11:09:44;;;;;;;34.20;9.18;;;;;;;4.75;89.40;99853.44;5045950;28;20094;-70
2022/01/19 11:12:13;;;;;;;35.03;7.60;;;;;;;4.83;89.62;99849.19;5046027;28;20029;-71
2022/01/19 11:14:40;;;;;;;30.45;7.05;;;;;;;4.78;89.62;99849.16;5044367;28;20017;-71
2022/01/19 11:17:06;;;;;;;47.47;7.65;;;;;;;4.79;89.75;99839.75;5045953;28;20033;-72
2022/01/19 11:19:37;;;;;;;27.65;6.90;;;;;;;4.81;89.71;99832.88;5045403;28;20445;-72
2022/01/19 11:22:15;;;;;;;27.83;7.07;;;;;;;4.75;89.90;99817.41;5045633;28;20531;-71
2022/01/19 11:24:59;;;;;;;36.08;8.50;;;;;;;4.82;89.80;99816.63;5045927;28;20049;-71
2022/01/19 11:27:28;;;;;;;29.23;10.35;;;;;;;4.75;90.01;99790.00;5045772;28;20052;-70
2022/01/19 11:30:16;;;;;;;42.60;10.73;;;;;;;4.86;90.22;99795.19;5045639;28;20021;-72
2022/01/19 11:32:42;;;;;;;36.30;9.07;;;;;;;4.77;90.29;99764.28;5045700;28;20018;-71
2022/01/19 11:35:08;;;;;;;34.22;10.18;;;;;;;4.89;90.35;99777.22;5054745;28;20064;-71
2022/01/19 11:37:43;;;;;;;37.75;8.43;;;;;;;4.91;90.35;99770.38;5065615;28;20048;-71
2022/01/19 11:40:15;;;;;;;39.58;7.50;;;;;;;4.89;90.15;99761.78;5065087;28;20612;-72
2022/01/19 11:42:41;;;;;;;;;;;;;;;4.91;90.33;99759.22;5065471;28;20397;-71
2022/01/19 11:45:28;;;;;;;31.38;6.93;;;;;;;4.88;90.00;99754.06;5065376;28;19919;-71
2022/01/19 11:48:35;;;;;;;31.42;6.57;;;;;;;4.87;90.22;99737.78;5065063;28;20079;-72
2022/01/19 11:51:29;;;;;;;29.13;6.75;;;;;;;4.81;90.23;99724.88;4982993;28;20031;-73
2022/01/19 11:54:38;;;;;;;36.25;9.57;;;;;;;4.83;90.46;99720.59;4980851;28;20082;-72
2022/01/19 11:57:04;;;;;;;33.75;7.28;;;;;;;4.82;90.35;99716.31;4983257;28;20323;-71
2022/01/19 11:59:47;;;;;;;26.60;8.45;;;;;;;4.83;90.51;99706.03;4983505;28;20307;-70
2022/01/19 12:02:24;;;;;;;45.05;10.07;;;;;;;4.82;90.40;99700.88;4982973;28;20038;-71
2022/01/19 12:05:14;;;;;;;46.20;12.18;;;;;;;4.80;90.39;99697.44;4983331;28;20027;-70
2022/01/19 12:07:45;;;;;;;34.83;7.43;;;;;;;4.73;90.42;99681.13;4982696;28;20089;-71
2022/01/19 12:10:14;;;;;;;56.67;11.43;;;;;;;4.81;90.50;99673.44;4983060;28;20081;-72
2022/01/19 12:13:07;;;;;;;37.45;10.15;;;;;;;4.77;90.68;99651.13;4983127;28;20043;-71
2022/01/19 12:15:54;;;;;;;41.63;8.98;;;;;;;4.77;90.80;99648.56;4983178;28;20560;-72
2022/01/19 12:18:43;;;;;;;47.78;12.20;;;;;;;4.81;90.83;99635.72;4983136;28;20022;-71
2022/01/19 12:21:11;;;;;;;44.78;10.90;;;;;;;4.81;90.73;99616.84;5003332;28;20047;-72
2022/01/19 12:23:38;;;;;;;31.25;7.00;;;;;;;4.81;90.59;99606.56;5064802;28;20024;-72
2022/01/19 12:26:06;;;;;;;46.63;10.35;;;;;;;4.71;90.60;99588.53;5064409;28;20032;-70
2022/01/19 12:28:46;;;;;;;34.10;8.93;;;;;;;4.78;90.71;99589.44;5064443;28;20025;-71
2022/01/19 12:31:24;;;;;;;30.80;10.70;;;;;;;4.82;90.67;99568.00;5064511;28;20077;-71
2022/01/19 12:34:02;;;;;;;48.63;8.75;;;;;;;4.80;90.59;99549.16;5046813;28;20072;-72
2022/01/19 12:36:58;;;;;;;30.13;7.15;;;;;;;4.79;90.85;99555.13;5063677;28;20037;-71
2022/01/19 12:39:26;;;;;;;33.78;8.63;;;;;;;4.79;90.99;99533.72;5064268;28;20082;-71
2022/01/19 12:42:17;;;;;;;42.70;11.45;;;;;;;4.76;91.03;99516.53;5063988;28;20052;-72
2022/01/19 12:45:00;;;;;;;61.03;12.75;;;;;;;4.64;90.86;99494.25;5064284;28;20282;-71
2022/01/19 12:47:26;;;;;;;34.00;8.05;;;;;;;4.77;91.01;99497.72;5064180;28;20021;-73
2022/01/19 12:50:08;;;;;;;30.50;8.02;;;;;;;4.66;90.95;99474.56;5045926;28;20024;-70
2022/01/19 12:52:35;;;;;;;38.38;8.98;;;;;;;4.77;91.00;99484.00;5064052;28;20085;-71
2022/01/19 12:55:11;;;;;;;38.75;7.03;;;;;;;4.75;91.33;99483.13;5064013;28;20103;-71
2022/01/19 12:57:36;;;;;;;50.75;12.52;;;;;;;4.73;91.34;99482.28;5063869;28;20025;-72
2022/01/19 13:00:08;;;;;;;38.78;10.57;;;;;;;4.75;91.54;99460.84;5063973;28;20021;-72